createdAt,value
2024-01-08T00:00:09.022Z,3.87
2024-01-08T00:05:32.068Z,5.17
2024-01-08T00:10:54.665Z,5.50
2024-01-08T00:16:18.585Z,4.37
2024-01-08T00:21:42.336Z,5.60
2024-01-08T00:27:05.030Z,4.77
2024-01-08T00:32:29.696Z,4.87
2024-01-08T00:37:52.394Z,5.10
2024-01-08T00:43:14.602Z,4.20
2024-01-08T00:48:36.922Z,5.00
2024-01-08T00:53:59.270Z,3.60
2024-01-08T00:59:21.824Z,4.37
2024-01-08T01:04:44.409Z,5.07
2024-01-08T01:10:07.277Z,4.17
2024-01-08T01:15:29.520Z,4.70
2024-01-08T01:20:52.151Z,4.57
2024-01-08T01:26:14.352Z,4.80
2024-01-08T01:31:37.001Z,4.40
2024-01-08T01:36:59.208Z,4.80
2024-01-08T01:42:22.364Z,4.53
2024-01-08T01:47:45.402Z,4.27
2024-01-08T01:53:08.141Z,4.53
2024-01-08T01:58:31.027Z,5.03
2024-01-08T02:03:53.793Z,4.40
2024-01-08T02:09:16.748Z,3.60
2024-01-08T02:14:39.486Z,5.03
2024-01-08T02:20:02.648Z,4.47
2024-01-08T02:25:26.404Z,4.10
2024-01-08T02:30:48.943Z,3.80
2024-01-08T02:36:11.376Z,4.50
2024-01-08T02:41:33.824Z,4.30
2024-01-08T02:46:56.295Z,3.93
2024-01-08T02:52:18.516Z,4.03
2024-01-08T02:57:40.645Z,4.10
2024-01-08T03:03:03.136Z,4.47
2024-01-08T03:08:25.266Z,4.70
2024-01-08T03:13:47.707Z,4.17
2024-01-08T03:19:09.987Z,5.33
2024-01-08T03:24:32.955Z,3.93
2024-01-08T03:29:55.392Z,4.20
2024-01-08T03:35:20.016Z,4.13
2024-01-08T03:40:42.486Z,4.33
2024-01-08T03:46:05.046Z,4.20
2024-01-08T03:51:27.838Z,4.40
2024-01-08T03:56:50.569Z,3.77
2024-01-08T04:02:14.243Z,4.63
2024-01-08T04:07:36.675Z,3.80
2024-01-08T04:12:58.987Z,3.93
2024-01-08T04:18:21.246Z,3.87
2024-01-08T04:23:43.565Z,4.37
2024-01-08T04:29:06.355Z,3.77
2024-01-08T04:34:28.611Z,4.63
2024-01-08T04:39:51.261Z,4.10
2024-01-08T04:45:15.833Z,4.13
2024-01-08T04:50:38.136Z,4.53
2024-01-08T04:56:00.777Z,4.33
2024-01-08T05:01:23.957Z,4.20
2024-01-08T05:06:47.320Z,5.50
2024-01-08T05:12:09.809Z,4.73
2024-01-08T05:17:32.535Z,4.03
2024-01-08T05:22:54.746Z,4.87
2024-01-08T05:28:17.649Z,4.00
2024-01-08T05:33:40.148Z,4.47
2024-01-08T05:39:02.698Z,4.60
2024-01-08T05:44:25.285Z,4.40
2024-01-08T05:49:47.805Z,4.07
2024-01-08T05:55:10.328Z,5.50
2024-01-08T06:00:32.736Z,4.83
2024-01-08T06:05:54.907Z,5.50
2024-01-08T06:11:17.669Z,6.53
2024-01-08T06:16:39.946Z,5.10
2024-01-08T06:22:02.557Z,6.53
2024-01-08T06:27:24.674Z,5.90
2024-01-08T06:32:49.717Z,4.87
2024-01-08T06:38:12.260Z,5.07
2024-01-08T06:43:34.563Z,4.83
2024-01-08T06:48:56.995Z,4.63
2024-01-08T06:54:19.388Z,5.33
2024-01-08T06:59:42.627Z,5.07
2024-01-08T07:05:06.225Z,6.20
2024-01-08T07:10:30.065Z,4.13
2024-01-08T07:15:52.496Z,5.10
2024-01-08T07:21:17.905Z,5.17
2024-01-08T07:26:40.555Z,5.93
2024-01-08T07:32:03.552Z,4.43
2024-01-08T07:37:25.897Z,6.50
2024-01-08T07:42:48.019Z,5.27
2024-01-08T07:48:10.365Z,5.20
2024-01-08T07:53:32.868Z,4.80
2024-01-08T07:58:55.295Z,5.13
2024-01-08T08:04:17.736Z,5.87
2024-01-08T08:09:40.396Z,5.03
2024-01-08T08:15:02.988Z,6.10
2024-01-08T08:20:25.776Z,5.37
2024-01-08T08:25:48.105Z,5.70
2024-01-08T08:31:10.453Z,5.03
2024-01-08T08:36:33.009Z,5.07
2024-01-08T08:41:58.806Z,5.67
2024-01-08T08:47:23.073Z,5.10
2024-01-08T08:52:45.962Z,5.23
2024-01-08T08:58:10.351Z,4.80
2024-01-08T09:03:32.888Z,4.73
2024-01-08T09:08:56.909Z,4.60
2024-01-08T09:14:19.636Z,4.30
2024-01-08T09:19:42.104Z,3.90
2024-01-08T09:25:05.837Z,4.40
2024-01-08T09:30:28.613Z,5.30
2024-01-08T09:35:51.243Z,3.90
2024-01-08T09:41:22.916Z,3.70
2024-01-08T09:46:51.156Z,4.10
2024-01-08T09:52:17.996Z,4.27
2024-01-08T09:57:40.310Z,4.57
2024-01-08T10:03:03.155Z,4.93
2024-01-08T10:08:25.506Z,4.73
2024-01-08T10:13:47.641Z,3.50
2024-01-08T10:19:10.211Z,4.20
2024-01-08T10:24:32.840Z,3.47
2024-01-08T10:29:56.522Z,3.93
2024-01-08T10:35:21.167Z,4.07
2024-01-08T10:40:44.150Z,3.80
2024-01-08T10:46:08.591Z,3.40
2024-01-08T10:51:32.478Z,4.20
2024-01-08T10:56:59.090Z,3.70
2024-01-08T11:02:21.681Z,3.10
2024-01-08T11:07:48.155Z,3.70
2024-01-08T11:13:12.026Z,3.37
2024-01-08T11:18:34.732Z,3.17
2024-01-08T11:23:57.306Z,3.53
2024-01-08T11:29:21.781Z,3.63
2024-01-08T11:35:05.121Z,3.77
2024-01-08T11:40:28.571Z,4.20
2024-01-08T11:45:51.148Z,3.27
2024-01-08T11:51:13.390Z,3.53
2024-01-08T11:56:36.187Z,3.00
2024-01-08T12:02:15.790Z,2.70
2024-01-08T12:07:42.210Z,3.90
2024-01-08T12:13:04.974Z,3.53
2024-01-08T12:18:27.463Z,3.27
2024-01-08T12:23:50.039Z,3.63
2024-01-08T12:29:12.766Z,3.10
2024-01-08T12:34:38.550Z,3.60
2024-01-08T12:40:02.702Z,3.40
2024-01-08T12:45:25.059Z,3.50
2024-01-08T12:50:49.349Z,3.13
2024-01-08T12:56:11.927Z,3.10
2024-01-08T13:01:34.092Z,3.83
2024-01-08T13:06:56.697Z,3.63
2024-01-08T13:12:19.348Z,3.30
2024-01-08T13:17:42.112Z,4.33
2024-01-08T13:23:04.311Z,3.43
2024-01-08T13:28:26.592Z,3.73
2024-01-08T13:33:49.538Z,3.70
2024-01-08T13:39:11.845Z,2.73
2024-01-08T13:44:34.059Z,4.20
2024-01-08T13:49:56.484Z,4.17
2024-01-08T13:55:18.849Z,3.43
2024-01-08T14:00:42.455Z,3.90
2024-01-08T14:06:05.478Z,3.73
2024-01-08T14:11:28.106Z,4.20
2024-01-08T14:16:50.639Z,3.57
2024-01-08T14:22:13.022Z,4.37
2024-01-08T14:27:36.630Z,3.70
2024-01-08T14:33:00.985Z,3.87
2024-01-08T14:38:23.721Z,4.10
2024-01-08T14:43:46.536Z,3.80
2024-01-08T14:49:08.932Z,5.00
2024-01-08T14:54:31.419Z,3.87
2024-01-08T14:59:53.950Z,4.53
2024-01-08T15:05:18.000Z,4.77
2024-01-08T15:10:40.094Z,5.70
2024-01-08T15:16:02.732Z,5.03
2024-01-08T15:21:25.403Z,6.73
2024-01-08T15:26:48.712Z,5.57
2024-01-08T15:32:11.533Z,5.13
2024-01-08T15:37:33.904Z,5.23
2024-01-08T15:42:56.155Z,4.77
2024-01-08T15:48:18.526Z,5.30
2024-01-08T15:53:41.229Z,4.43
2024-01-08T15:59:03.742Z,5.50
2024-01-08T16:04:26.241Z,5.90
2024-01-08T16:09:48.371Z,5.27
2024-01-08T16:15:10.742Z,5.27
2024-01-08T16:20:33.164Z,6.07
2024-01-08T16:25:55.664Z,5.33
2024-01-08T16:31:17.977Z,5.23
2024-01-08T16:36:40.822Z,4.50
2024-01-08T16:42:03.176Z,6.03
2024-01-08T16:47:25.529Z,5.93
2024-01-08T16:52:47.834Z,5.20
2024-01-08T16:58:13.077Z,5.60
2024-01-08T17:03:35.829Z,5.87
2024-01-08T17:09:03.277Z,6.10
2024-01-08T17:14:26.038Z,6.00
2024-01-08T17:19:48.428Z,6.57
2024-01-08T17:25:10.693Z,5.73
2024-01-08T17:30:33.264Z,6.57
2024-01-08T17:35:55.653Z,7.23
2024-01-08T17:41:17.967Z,6.77
2024-01-08T17:46:40.547Z,6.73
2024-01-08T17:52:03.377Z,7.13
2024-01-08T17:57:25.577Z,7.90
2024-01-08T18:02:48.057Z,6.83
2024-01-08T18:08:10.912Z,6.70
2024-01-08T18:13:33.094Z,6.17
2024-01-08T18:18:56.366Z,6.00
2024-01-08T18:24:24.331Z,6.63
2024-01-08T18:29:55.381Z,7.03
2024-01-08T18:35:17.891Z,6.57
2024-01-08T18:40:40.216Z,11.50
2024-01-08T18:46:07.396Z,13.13
2024-01-08T18:51:29.633Z,10.67
2024-01-08T18:56:52.181Z,7.70
2024-01-08T19:02:14.540Z,6.10
2024-01-08T19:07:37.639Z,7.20
2024-01-08T19:12:59.804Z,6.83
2024-01-08T19:18:22.949Z,5.93
2024-01-08T19:23:45.623Z,7.37
2024-01-08T19:29:08.274Z,7.47
2024-01-08T19:34:33.022Z,6.40
2024-01-08T19:39:55.208Z,6.73
2024-01-08T19:45:18.206Z,4.93
2024-01-08T19:50:40.501Z,4.10
2024-01-08T19:56:03.443Z,4.27
2024-01-08T20:01:26.134Z,3.73
2024-01-08T20:06:49.393Z,3.73
2024-01-08T20:12:11.972Z,5.07
2024-01-08T20:17:34.718Z,4.43
2024-01-08T20:22:57.483Z,3.27
2024-01-08T20:28:20.069Z,4.17
2024-01-08T20:33:42.667Z,5.23
2024-01-08T20:39:06.203Z,3.97
2024-01-08T20:44:28.993Z,4.60
2024-01-08T20:49:52.502Z,3.40
2024-01-08T20:55:15.552Z,3.90
2024-01-08T21:00:38.034Z,4.67
2024-01-08T21:06:00.708Z,4.40
2024-01-08T21:11:23.723Z,3.90
2024-01-08T21:16:45.989Z,3.63
2024-01-08T21:22:08.283Z,3.87
2024-01-08T21:27:30.626Z,4.47
2024-01-08T21:32:53.190Z,4.43
2024-01-08T21:38:15.932Z,3.73
2024-01-08T21:43:38.111Z,4.53
2024-01-08T21:49:02.835Z,3.57
2024-01-08T21:54:25.803Z,4.27
2024-01-08T21:59:48.411Z,4.27
2024-01-08T22:05:11.799Z,4.30
2024-01-08T22:10:35.546Z,4.93
2024-01-08T22:15:58.614Z,4.10
2024-01-08T22:21:21.370Z,4.33
2024-01-08T22:26:43.998Z,3.67
2024-01-08T22:32:06.686Z,4.20
2024-01-08T22:37:30.802Z,3.93
2024-01-08T22:42:53.137Z,4.37
2024-01-08T22:48:15.419Z,4.33
2024-01-08T22:53:37.740Z,4.43
2024-01-08T22:58:59.913Z,4.20
2024-01-08T23:04:22.784Z,3.40
2024-01-08T23:09:44.919Z,4.27
2024-01-08T23:15:07.810Z,4.17
2024-01-08T23:20:30.004Z,4.27
2024-01-08T23:25:52.469Z,4.43
2024-01-08T23:31:14.967Z,4.97
2024-01-08T23:36:39.986Z,4.90
2024-01-08T23:42:02.659Z,4.40
2024-01-08T23:47:25.138Z,3.40
2024-01-08T23:52:47.522Z,3.97
2024-01-08T23:58:09.776Z,3.77
